createdAt,value
2023-05-01T00:01:06.059Z,100169.63
2023-05-01T00:03:34.044Z,100169.75
2023-05-01T00:06:04.319Z,100161.84
2023-05-01T00:08:32.405Z,100159.25
2023-05-01T00:11:09.814Z,100155.87
2023-05-01T00:13:37.515Z,100161.09
2023-05-01T00:16:10.032Z,100154.97
2023-05-01T00:18:37.492Z,100162.06
2023-05-01T00:21:05.336Z,100159.37
2023-05-01T00:23:32.729Z,100163.03
2023-05-01T00:26:00.153Z,100155.28
2023-05-01T00:28:27.836Z,100161.31
2023-05-01T00:30:55.438Z,100159.66
2023-05-01T00:33:22.812Z,100156.38
2023-05-01T00:35:51.434Z,100151.94
2023-05-01T00:38:18.954Z,100154.59
2023-05-01T00:40:47.230Z,100157.34
2023-05-01T00:43:14.971Z,100159.19
2023-05-01T00:45:45.334Z,100152.19
2023-05-01T00:48:13.068Z,100157.47
2023-05-01T00:50:41.107Z,100157.47
2023-05-01T00:53:08.877Z,100160.22
2023-05-01T00:55:37.195Z,100163.78
2023-05-01T00:58:05.094Z,100161.16
2023-05-01T01:00:32.665Z,100161.94
2023-05-01T01:03:00.151Z,100158.59
2023-05-01T01:05:30.746Z,100155.16
2023-05-01T01:08:30.706Z,100157.00
2023-05-01T01:11:19.798Z,100163.16
2023-05-01T01:13:58.377Z,100158.91
2023-05-01T01:16:39.043Z,100164.22
2023-05-01T01:19:54.501Z,100163.31
2023-05-01T01:22:24.218Z,100153.84
2023-05-01T01:25:19.598Z,100154.78
2023-05-01T01:28:05.765Z,100150.44
2023-05-01T01:30:48.345Z,100155.75
2023-05-01T01:33:49.572Z,100146.97
2023-05-01T01:36:41.189Z,100140.94
2023-05-01T01:39:21.038Z,100146.97
2023-05-01T01:41:51.469Z,100147.94
2023-05-01T01:44:27.985Z,100144.50
2023-05-01T01:46:55.529Z,100148.84
2023-05-01T01:49:26.682Z,100147.06
2023-05-01T01:51:55.227Z,100136.63
2023-05-01T01:54:30.804Z,100141.87
2023-05-01T01:56:59.878Z,100141.81
2023-05-01T01:59:31.060Z,100145.34
2023-05-01T02:01:59.068Z,100151.50
2023-05-01T02:04:28.272Z,100154.06
2023-05-01T02:06:58.289Z,100154.00
2023-05-01T02:09:27.047Z,100153.13
2023-05-01T02:11:55.950Z,100146.19
2023-05-01T02:14:26.185Z,100153.03
2023-05-01T02:16:54.041Z,100145.25
2023-05-01T02:19:22.430Z,100143.50
2023-05-01T02:21:50.700Z,100147.75
2023-05-01T02:24:19.800Z,100146.06
2023-05-01T02:26:50.350Z,100147.81
2023-05-01T02:29:18.202Z,100147.75
2023-05-01T02:31:45.601Z,100139.84
2023-05-01T02:34:13.117Z,100139.84
2023-05-01T02:36:40.920Z,100138.03
2023-05-01T02:39:08.492Z,100145.03
2023-05-01T02:41:37.162Z,100144.88
2023-05-01T02:44:06.535Z,100141.50
2023-05-01T02:46:36.918Z,100145.81
2023-05-01T02:49:05.964Z,100152.72
2023-05-01T02:51:35.069Z,100152.91
2023-05-01T02:54:03.306Z,100150.31
2023-05-01T02:56:31.466Z,100148.44
2023-05-01T02:58:58.864Z,100158.03
2023-05-01T03:01:27.936Z,100152.00
2023-05-01T03:03:55.824Z,100156.34
2023-05-01T03:06:23.368Z,100158.91
2023-05-01T03:08:51.512Z,100161.50
2023-05-01T03:11:19.157Z,100164.09
2023-05-01T03:13:47.625Z,100161.28
2023-05-01T03:16:15.141Z,100157.94
2023-05-01T03:18:42.863Z,100167.50
2023-05-01T03:21:10.265Z,100163.97
2023-05-01T03:23:38.371Z,100161.41
2023-05-01T03:26:07.725Z,100170.09
2023-05-01T03:28:35.167Z,100171.69
2023-05-01T03:31:02.751Z,100169.16
2023-05-01T03:33:31.696Z,100166.53
2023-05-01T03:36:03.762Z,100170.84
2023-05-01T03:38:32.155Z,100166.56
2023-05-01T03:41:02.669Z,100160.28
2023-05-01T03:43:32.255Z,100165.50
2023-05-01T03:46:00.960Z,100164.62
2023-05-01T03:48:28.760Z,100167.22
2023-05-01T03:50:58.310Z,100162.03
2023-05-01T03:53:26.106Z,100155.84
2023-05-01T03:55:53.631Z,100163.69
2023-05-01T03:58:22.249Z,100166.37
2023-05-01T04:00:51.078Z,100167.13
2023-05-01T04:03:19.166Z,100154.75
2023-05-01T04:05:47.374Z,100159.16
2023-05-01T04:08:14.897Z,100169.41
2023-05-01T04:10:42.571Z,100165.03
2023-05-01T04:13:10.825Z,100168.34
2023-05-01T04:15:39.100Z,100168.12
2023-05-01T04:18:06.884Z,100167.97
2023-05-01T04:20:35.755Z,100162.66
2023-05-01T04:23:03.316Z,100166.97
2023-05-01T04:25:31.128Z,100167.03
2023-05-01T04:27:59.866Z,100164.16
2023-05-01T04:30:27.347Z,100169.34
2023-05-01T04:32:55.244Z,100168.72
2023-05-01T04:35:23.591Z,100174.62
2023-05-01T04:37:51.713Z,100175.47
2023-05-01T04:40:19.468Z,100174.34
2023-05-01T04:42:47.354Z,100179.53
2023-05-01T04:45:14.967Z,100175.09
2023-05-01T04:47:42.765Z,100174.94
2023-05-01T04:50:10.814Z,100188.97
2023-05-01T04:52:38.610Z,100185.53
2023-05-01T04:55:07.050Z,100180.06
2023-05-01T04:57:35.369Z,100185.25
2023-05-01T05:00:05.625Z,100176.28
2023-05-01T05:02:34.016Z,100176.28
2023-05-01T05:05:01.670Z,100177.03
2023-05-01T05:07:29.178Z,100177.16
2023-05-01T05:09:59.610Z,100174.78
2023-05-01T05:12:27.132Z,100184.22
2023-05-01T05:14:54.640Z,100177.03
2023-05-01T05:17:22.417Z,100178.63
2023-05-01T05:19:49.943Z,100185.66
2023-05-01T05:22:17.485Z,100183.75
2023-05-01T05:24:47.637Z,100187.19
2023-05-01T05:27:15.905Z,100187.19
2023-05-01T05:29:43.363Z,100185.78
2023-05-01T05:32:11.578Z,100188.03
2023-05-01T05:34:39.321Z,100189.13
2023-05-01T05:37:07.098Z,100189.03
2023-05-01T05:39:37.963Z,100198.84
2023-05-01T05:42:06.049Z,100190.13
2023-05-01T05:44:35.936Z,100195.12
2023-05-01T05:47:03.960Z,100193.22
2023-05-01T05:49:33.933Z,100196.47
2023-05-01T05:52:01.496Z,100201.25
2023-05-01T05:54:30.000Z,100194.44
2023-05-01T05:56:57.530Z,100198.19
2023-05-01T05:59:25.415Z,100204.41
2023-05-01T06:01:53.190Z,100192.47
2023-05-01T06:04:20.929Z,100198.91
2023-05-01T06:06:49.108Z,100208.38
2023-05-01T06:09:19.167Z,100208.50
2023-05-01T06:11:47.731Z,100204.06
2023-05-01T06:14:16.707Z,100206.25
2023-05-01T06:16:44.530Z,100213.28
2023-05-01T06:19:12.878Z,100208.88
2023-05-01T06:21:40.664Z,100208.84
2023-05-01T06:24:09.892Z,100209.84
2023-05-01T06:26:37.781Z,100214.09
2023-05-01T06:29:05.302Z,100216.50
2023-05-01T06:31:32.976Z,100218.72
2023-05-01T06:34:00.750Z,100217.66
2023-05-01T06:36:28.567Z,100215.41
2023-05-01T06:38:56.684Z,100212.81
2023-05-01T06:41:25.808Z,100217.22
2023-05-01T06:43:53.352Z,100218.72
2023-05-01T06:46:20.846Z,100217.28
2023-05-01T06:48:48.884Z,100219.91
2023-05-01T06:51:16.451Z,100212.09
2023-05-01T06:53:43.866Z,100206.06
2023-05-01T06:56:11.555Z,100217.97
2023-05-01T06:58:38.983Z,100209.84
2023-05-01T07:01:07.416Z,100213.97
2023-05-01T07:03:35.239Z,100217.25
2023-05-01T07:06:02.790Z,100216.22
2023-05-01T07:08:30.805Z,100216.16
2023-05-01T07:10:58.670Z,100212.84
2023-05-01T07:13:27.417Z,100216.00
2023-05-01T07:15:55.224Z,100223.87
2023-05-01T07:18:23.420Z,100213.44
2023-05-01T07:20:50.897Z,100222.81
2023-05-01T07:23:18.374Z,100216.66
2023-05-01T07:25:46.376Z,100224.88
2023-05-01T07:28:13.825Z,100214.78
2023-05-01T07:30:41.768Z,100218.78
2023-05-01T07:33:09.689Z,100220.16
2023-05-01T07:35:37.666Z,100208.06
2023-05-01T07:38:05.165Z,100218.06
2023-05-01T07:40:34.875Z,100218.25
2023-05-01T07:43:02.637Z,100219.25
2023-05-01T07:45:30.096Z,100226.94
2023-05-01T07:47:57.897Z,100227.63
2023-05-01T07:50:26.036Z,100233.03
2023-05-01T07:52:53.798Z,100220.81
2023-05-01T07:55:22.748Z,100219.03
2023-05-01T07:57:50.653Z,100225.94
2023-05-01T08:00:18.773Z,100231.50
2023-05-01T08:02:46.591Z,100218.28
2023-05-01T08:05:14.339Z,100221.50
2023-05-01T08:07:41.708Z,100212.72
2023-05-01T08:10:09.666Z,100219.03
2023-05-01T08:12:37.101Z,100223.50
2023-05-01T08:15:05.269Z,100218.97
2023-05-01T08:17:33.020Z,100214.94
2023-05-01T08:20:04.430Z,100213.53
2023-05-01T08:22:32.108Z,100220.91
2023-05-01T08:24:59.775Z,100228.78
2023-05-01T08:27:27.399Z,100225.19
2023-05-01T08:29:55.082Z,100224.09
2023-05-01T08:32:22.929Z,100218.88
2023-05-01T08:34:50.317Z,100219.06
2023-05-01T08:37:19.143Z,100216.72
2023-05-01T08:39:46.801Z,100212.72
2023-05-01T08:42:14.316Z,100209.53
2023-05-01T08:44:43.013Z,100208.06
2023-05-01T08:47:13.336Z,100212.03
2023-05-01T08:49:42.026Z,100215.69
2023-05-01T08:52:12.031Z,100216.22
2023-05-01T08:54:42.806Z,100210.06
2023-05-01T08:57:11.476Z,100205.72
2023-05-01T08:59:39.978Z,100208.81
2023-05-01T09:02:09.494Z,100211.44
2023-05-01T09:04:40.952Z,100215.19
2023-05-01T09:07:10.090Z,100207.53
2023-05-01T09:09:37.573Z,100215.44
2023-05-01T09:12:25.926Z,100214.19
2023-05-01T09:14:54.924Z,100213.87
2023-05-01T09:17:23.747Z,100205.50
2023-05-01T09:19:51.434Z,100198.56
2023-05-01T09:22:19.545Z,100196.44
2023-05-01T09:24:47.087Z,100196.09
2023-05-01T09:27:15.116Z,100202.59
2023-05-01T09:29:44.493Z,100197.22
2023-05-01T09:32:21.223Z,100206.81
2023-05-01T09:34:49.983Z,100197.19
2023-05-01T09:37:31.649Z,100201.88
2023-05-01T09:40:13.565Z,100197.16
2023-05-01T09:42:49.338Z,100199.56
2023-05-01T09:45:17.441Z,100188.28
2023-05-01T09:47:48.026Z,100191.19
2023-05-01T09:50:32.387Z,100195.06
2023-05-01T09:53:05.129Z,100188.19
2023-05-01T09:55:33.559Z,100185.78
2023-05-01T09:58:02.582Z,100182.81
2023-05-01T10:00:30.313Z,100176.50
2023-05-01T10:02:58.209Z,100181.53
2023-05-01T10:05:26.294Z,100177.62
2023-05-01T10:07:58.226Z,100175.31
2023-05-01T10:10:25.895Z,100169.47
2023-05-01T10:12:53.253Z,100158.69
2023-05-01T10:15:26.163Z,100160.94
2023-05-01T10:17:55.633Z,100163.66
2023-05-01T10:20:23.229Z,100162.59
2023-05-01T10:22:50.713Z,100159.78
2023-05-01T10:25:20.079Z,100155.31
2023-05-01T10:27:48.495Z,100154.94
2023-05-01T10:30:17.347Z,100147.84
2023-05-01T10:32:45.962Z,100135.72
2023-05-01T10:35:16.270Z,100143.53
2023-05-01T10:37:48.833Z,100144.91
2023-05-01T10:40:43.919Z,100138.63
2023-05-01T10:43:25.759Z,100140.00
2023-05-01T10:46:12.778Z,100143.91
2023-05-01T10:48:43.755Z,100136.50
2023-05-01T10:51:11.495Z,100142.56
2023-05-01T10:53:40.726Z,100136.34
2023-05-01T10:56:26.994Z,100136.63
2023-05-01T10:59:04.716Z,100140.75
2023-05-01T11:01:39.743Z,100142.16
2023-05-01T11:04:22.856Z,100132.53
2023-05-01T11:07:05.630Z,100121.28
2023-05-01T11:09:54.674Z,100125.31
2023-05-01T11:12:46.999Z,100135.66
2023-05-01T11:15:33.982Z,100123.59
2023-05-01T11:18:02.450Z,100122.97
2023-05-01T11:20:36.461Z,100117.84
2023-05-01T11:23:03.913Z,100118.63
2023-05-01T11:25:31.886Z,100108.22
2023-05-01T11:28:01.742Z,100101.31
2023-05-01T11:30:42.013Z,100107.69
2023-05-01T11:33:10.881Z,100099.72
2023-05-01T11:35:39.274Z,100094.78
2023-05-01T11:38:06.753Z,100100.19
2023-05-01T11:40:35.039Z,100091.13
2023-05-01T11:43:04.483Z,100102.81
2023-05-01T11:45:33.094Z,100097.06
2023-05-01T11:48:04.523Z,100087.25
2023-05-01T11:50:37.180Z,100091.16
2023-05-01T11:53:11.855Z,100091.53
2023-05-01T11:55:40.258Z,100090.53
2023-05-01T11:58:08.136Z,100087.69
2023-05-01T12:00:38.027Z,100086.34
2023-05-01T12:03:10.316Z,100077.41
2023-05-01T12:05:39.877Z,100079.53
2023-05-01T12:08:20.884Z,100071.41
2023-05-01T12:10:52.283Z,100077.25
2023-05-01T12:13:20.655Z,100068.34
2023-05-01T12:15:52.480Z,100060.91
2023-05-01T12:18:23.638Z,100061.44
2023-05-01T12:20:52.946Z,100063.31
2023-05-01T12:23:34.745Z,100066.25
2023-05-01T12:26:05.247Z,100063.56
2023-05-01T12:28:32.953Z,100066.88
2023-05-01T12:31:05.489Z,100062.91
2023-05-01T12:33:33.381Z,100047.16
2023-05-01T12:36:11.859Z,100049.75
2023-05-01T12:38:39.611Z,100047.09
2023-05-01T12:41:09.372Z,100048.75
2023-05-01T12:43:38.024Z,100036.63
2023-05-01T12:46:06.102Z,100040.25
2023-05-01T12:48:34.357Z,100035.06
2023-05-01T12:51:04.982Z,100034.69
2023-05-01T12:53:33.494Z,100027.25
2023-05-01T12:56:03.180Z,100032.94
2023-05-01T12:58:37.974Z,100029.03
2023-05-01T13:01:06.739Z,100016.34
2023-05-01T13:03:35.317Z,100022.41
2023-05-01T13:06:05.856Z,100013.47
2023-05-01T13:08:36.796Z,100009.87
2023-05-01T13:11:17.451Z,100003.59
2023-05-01T13:13:45.949Z,100005.50
2023-05-01T13:16:16.994Z,99991.44
2023-05-01T13:18:44.672Z,99996.47
2023-05-01T13:21:14.686Z,99995.94
2023-05-01T13:23:43.966Z,99993.47
2023-05-01T13:26:12.189Z,100000.81
2023-05-01T13:28:46.683Z,99992.34
2023-05-01T13:31:15.089Z,99994.56
2023-05-01T13:33:45.642Z,99975.69
2023-05-01T13:36:25.167Z,99977.47
2023-05-01T13:38:57.007Z,99983.31
2023-05-01T13:41:26.161Z,99980.63
2023-05-01T13:43:55.934Z,99973.44
2023-05-01T13:46:25.804Z,99979.63
2023-05-01T13:48:53.588Z,99964.03
2023-05-01T13:51:26.417Z,99964.41
2023-05-01T13:53:59.377Z,99962.66
2023-05-01T13:56:26.864Z,99967.25
2023-05-01T13:58:54.564Z,99963.72
2023-05-01T14:01:22.699Z,99963.31
2023-05-01T14:03:50.777Z,99954.69
2023-05-01T14:06:21.370Z,99960.94
2023-05-01T14:08:49.172Z,99966.72
2023-05-01T14:11:18.201Z,99964.84
2023-05-01T14:13:51.069Z,99961.88
2023-05-01T14:16:27.187Z,99953.53
2023-05-01T14:18:57.154Z,99951.00
2023-05-01T14:21:27.932Z,99945.97
2023-05-01T14:23:57.202Z,99947.16
2023-05-01T14:26:25.052Z,99950.31
2023-05-01T14:28:52.781Z,99945.00
2023-05-01T14:31:27.655Z,99942.34
2023-05-01T14:33:57.869Z,99941.16
2023-05-01T14:36:25.578Z,99933.44
2023-05-01T14:38:56.307Z,99928.75
2023-05-01T14:41:24.188Z,99929.78
2023-05-01T14:43:54.256Z,99926.91
2023-05-01T14:46:32.736Z,99925.63
2023-05-01T14:49:03.636Z,99922.22
2023-05-01T14:51:32.304Z,99923.31
2023-05-01T14:54:00.273Z,99918.63
2023-05-01T14:56:27.802Z,99919.41
2023-05-01T14:58:55.407Z,99915.34
2023-05-01T15:01:23.324Z,99918.16
2023-05-01T15:03:50.922Z,99913.97
2023-05-01T15:06:18.459Z,99916.56
2023-05-01T15:08:46.885Z,99915.34
2023-05-01T15:11:14.483Z,99909.37
2023-05-01T15:13:44.160Z,99912.53
2023-05-01T15:16:12.166Z,99913.34
2023-05-01T15:18:39.910Z,99914.84
2023-05-01T15:21:07.412Z,99913.34
2023-05-01T15:23:36.909Z,99908.19
2023-05-01T15:26:04.297Z,99906.78
2023-05-01T15:28:32.543Z,99907.88
2023-05-01T15:31:00.215Z,99902.09
2023-05-01T15:33:27.783Z,99903.69
2023-05-01T15:35:55.490Z,99889.59
2023-05-01T15:38:24.114Z,99905.09
2023-05-01T15:40:52.036Z,99900.00
2023-05-01T15:43:19.480Z,99893.59
2023-05-01T15:45:47.409Z,99900.88
2023-05-01T15:48:14.875Z,99899.81
2023-05-01T15:50:42.549Z,99903.97
2023-05-01T15:53:10.353Z,99901.91
2023-05-01T15:55:37.774Z,99898.00
2023-05-01T15:58:05.221Z,99896.59
2023-05-01T16:00:38.181Z,99893.94
2023-05-01T16:03:07.733Z,99896.00
2023-05-01T16:05:36.837Z,99899.91
2023-05-01T16:08:05.925Z,99901.91
2023-05-01T16:10:37.329Z,99893.59
2023-05-01T16:13:08.771Z,99892.38
2023-05-01T16:15:37.058Z,99889.28
2023-05-01T16:18:05.058Z,99892.84
2023-05-01T16:20:41.874Z,99895.34
2023-05-01T16:23:09.667Z,99893.69
2023-05-01T16:25:42.354Z,99891.59
2023-05-01T16:28:10.259Z,99884.66
2023-05-01T16:30:41.891Z,99883.50
2023-05-01T16:33:18.260Z,99880.97
2023-05-01T16:35:48.313Z,99888.84
2023-05-01T16:38:17.082Z,99874.81
2023-05-01T16:40:46.012Z,99870.69
2023-05-01T16:43:13.665Z,99882.34
2023-05-01T16:45:41.916Z,99882.44
2023-05-01T16:48:09.478Z,99878.66
2023-05-01T16:50:40.094Z,99880.34
2023-05-01T16:53:07.987Z,99885.56
2023-05-01T16:55:35.606Z,99889.22
2023-05-01T16:58:03.113Z,99884.78
2023-05-01T17:00:31.329Z,99883.12
2023-05-01T17:02:59.128Z,99885.38
2023-05-01T17:05:26.952Z,99882.78
2023-05-01T17:07:54.604Z,99883.81
2023-05-01T17:10:22.021Z,99882.00
2023-05-01T17:12:49.517Z,99878.97
2023-05-01T17:15:18.183Z,99884.19
2023-05-01T17:17:45.633Z,99890.16
2023-05-01T17:20:14.006Z,99882.06
2023-05-01T17:22:41.893Z,99894.09
2023-05-01T17:25:09.458Z,99889.38
2023-05-01T17:27:37.703Z,99880.34
2023-05-01T17:30:06.059Z,99879.47
2023-05-01T17:32:36.996Z,99876.97
2023-05-01T17:35:06.093Z,99877.41
2023-05-01T17:37:33.481Z,99881.63
2023-05-01T17:40:01.449Z,99882.19
2023-05-01T17:42:29.513Z,99875.94
2023-05-01T17:44:56.911Z,99876.16
2023-05-01T17:47:26.111Z,99873.72
2023-05-01T17:49:54.300Z,99876.16
2023-05-01T17:52:21.791Z,99884.50
2023-05-01T17:54:49.318Z,99882.91
2023-05-01T17:57:17.149Z,99883.25
2023-05-01T17:59:44.805Z,99880.34
2023-05-01T18:02:12.517Z,99893.13
2023-05-01T18:04:40.401Z,99890.06
2023-05-01T18:07:07.848Z,99885.88
2023-05-01T18:09:35.419Z,99889.47
2023-05-01T18:12:03.241Z,99888.09
2023-05-01T18:14:30.711Z,99884.13
2023-05-01T18:16:58.300Z,99885.13
2023-05-01T18:19:26.103Z,99884.72
2023-05-01T18:21:53.515Z,99887.84
2023-05-01T18:24:21.101Z,99885.44
2023-05-01T18:26:48.896Z,99889.16
2023-05-01T18:29:16.477Z,99888.38
2023-05-01T18:31:43.974Z,99886.31
2023-05-01T18:34:12.626Z,99886.84
2023-05-01T18:36:43.661Z,99892.25
2023-05-01T18:39:13.390Z,99888.03
2023-05-01T18:41:40.776Z,99893.78
2023-05-01T18:44:08.202Z,99896.25
2023-05-01T18:46:36.876Z,99900.84
2023-05-01T18:49:04.526Z,99900.34
2023-05-01T18:51:32.316Z,99905.94
2023-05-01T18:54:02.062Z,99904.47
2023-05-01T18:56:31.077Z,99905.38
2023-05-01T18:58:58.583Z,99913.50
2023-05-01T19:01:26.410Z,99905.53
2023-05-01T19:03:58.873Z,99921.69
2023-05-01T19:06:26.974Z,99919.78
2023-05-01T19:08:54.630Z,99920.22
2023-05-01T19:11:22.300Z,99919.69
2023-05-01T19:13:52.668Z,99920.88
2023-05-01T19:16:22.720Z,99932.41
2023-05-01T19:18:50.605Z,99923.63
2023-05-01T19:21:18.176Z,99920.62
2023-05-01T19:23:46.580Z,99928.62
2023-05-01T19:26:14.701Z,99918.84
2023-05-01T19:28:42.465Z,99921.66
2023-05-01T19:31:12.342Z,99923.56
2023-05-01T19:33:41.203Z,99923.16
2023-05-01T19:36:08.714Z,99923.25
2023-05-01T19:38:36.219Z,99920.84
2023-05-01T19:41:12.049Z,99919.78
2023-05-01T19:43:45.030Z,99922.25
2023-05-01T19:46:12.809Z,99921.78
2023-05-01T19:48:40.504Z,99921.22
2023-05-01T19:51:07.925Z,99920.47
2023-05-01T19:53:36.214Z,99916.91
2023-05-01T19:56:03.735Z,99924.31
2023-05-01T19:58:31.214Z,99925.25
2023-05-01T20:01:02.218Z,99926.72
2023-05-01T20:03:30.032Z,99932.69
2023-05-01T20:05:57.524Z,99937.22
2023-05-01T20:08:25.170Z,99934.88
2023-05-01T20:10:52.873Z,99932.72
2023-05-01T20:13:20.273Z,99927.59
2023-05-01T20:15:47.689Z,99937.19
2023-05-01T20:18:16.763Z,99929.34
2023-05-01T20:20:44.199Z,99936.97
2023-05-01T20:23:15.915Z,99935.38
2023-05-01T20:25:43.899Z,99938.13
2023-05-01T20:28:12.975Z,99937.97
2023-05-01T20:30:41.213Z,99938.19
2023-05-01T20:33:09.299Z,99932.09
2023-05-01T20:35:37.172Z,99938.56
2023-05-01T20:38:05.069Z,99931.56
2023-05-01T20:40:33.495Z,99941.91
2023-05-01T20:43:00.914Z,99935.09
2023-05-01T20:45:31.888Z,99937.09
2023-05-01T20:48:00.157Z,99939.00
2023-05-01T20:50:28.129Z,99940.06
2023-05-01T20:52:56.361Z,99944.56
2023-05-01T20:55:24.270Z,99942.03
2023-05-01T20:57:51.706Z,99944.22
2023-05-01T21:00:19.142Z,99951.06
2023-05-01T21:02:47.079Z,99952.09
2023-05-01T21:05:16.244Z,99952.28
2023-05-01T21:07:43.730Z,99952.09
2023-05-01T21:10:12.081Z,99952.31
2023-05-01T21:12:40.025Z,99956.06
2023-05-01T21:15:08.062Z,99950.00
2023-05-01T21:17:36.394Z,99957.88
2023-05-01T21:20:16.732Z,99956.13
2023-05-01T21:22:45.685Z,99957.00
2023-05-01T21:25:15.443Z,99952.63
2023-05-01T21:27:42.845Z,99966.09
2023-05-01T21:30:15.342Z,99963.31
2023-05-01T21:32:42.982Z,99966.97
2023-05-01T21:35:11.533Z,99969.59
2023-05-01T21:37:48.718Z,99964.41
2023-05-01T21:40:21.345Z,99969.06
2023-05-01T21:42:48.855Z,99964.66
2023-05-01T21:45:18.291Z,99962.97
2023-05-01T21:47:47.785Z,99963.94
2023-05-01T21:50:17.746Z,99965.75
2023-05-01T21:52:46.620Z,99968.38
2023-05-01T21:55:20.428Z,99966.69
2023-05-01T21:57:49.996Z,99966.84
2023-05-01T22:00:18.951Z,99963.50
2023-05-01T22:02:48.660Z,99971.59
2023-05-01T22:05:18.776Z,99969.87
2023-05-01T22:07:47.089Z,99974.22
2023-05-01T22:10:17.037Z,99971.59
2023-05-01T22:12:45.334Z,99976.16
2023-05-01T22:15:15.529Z,99970.91
2023-05-01T22:17:44.426Z,99975.41
2023-05-01T22:20:12.245Z,99972.69
2023-05-01T22:22:41.173Z,99971.91
2023-05-01T22:25:09.870Z,99966.72
2023-05-01T22:27:37.616Z,99968.56
2023-05-01T22:30:05.746Z,99966.84
2023-05-01T22:32:33.938Z,99962.41
2023-05-01T22:35:01.681Z,99963.47
2023-05-01T22:37:30.155Z,99963.47
2023-05-01T22:39:58.346Z,99959.09
2023-05-01T22:42:26.164Z,99960.91
2023-05-01T22:44:53.569Z,99956.59
2023-05-01T22:47:21.210Z,99964.41
2023-05-01T22:49:48.666Z,99959.22
2023-05-01T22:52:16.276Z,99960.06
2023-05-01T22:54:43.945Z,99962.81
2023-05-01T22:57:11.440Z,99948.19
2023-05-01T22:59:40.474Z,99956.88
2023-05-01T23:02:08.611Z,99954.38
2023-05-01T23:04:36.413Z,99954.66
2023-05-01T23:07:03.891Z,99955.37
2023-05-01T23:09:32.378Z,99957.22
2023-05-01T23:11:59.953Z,99945.00
2023-05-01T23:14:27.630Z,99953.84
2023-05-01T23:16:55.291Z,99960.91
2023-05-01T23:19:24.576Z,99951.22
2023-05-01T23:22:06.932Z,99954.06
2023-05-01T23:24:43.263Z,99958.34
2023-05-01T23:27:12.305Z,99952.19
2023-05-01T23:29:40.589Z,99954.00
2023-05-01T23:32:26.791Z,99946.44
2023-05-01T23:34:55.560Z,99957.59
2023-05-01T23:37:23.281Z,99955.06
2023-05-01T23:39:52.487Z,99957.88
2023-05-01T23:42:21.338Z,99952.72
2023-05-01T23:44:48.887Z,99956.13
2023-05-01T23:47:16.449Z,99951.00
2023-05-01T23:49:44.232Z,99950.91
2023-05-01T23:52:12.021Z,99950.91
2023-05-01T23:54:39.412Z,99947.37
2023-05-01T23:57:07.086Z,99957.75
2023-05-01T23:59:35.394Z,99952.56
